»·PEaware :: UAL698 KSEA-KSFO

UAL698 :: KSEA-KSFO

FLIGHT INFORMATION

Flight Status: Arrived
Operator:
United Airlines
More flights by this operator :: More flights under this callsign
Pilot: Anonymous 14019 (14019)
Aircraft: AIRBUS A319
(A319)
More flights by this aircraft type
Origin: KSEA Seattle-Tacoma Intl
United States
Destination: KSFO San Francisco Intl
United States
More flights between these airports :: More routes between these airports
Route: +HAROB6 FEPOT Q3 FOWND MLBEC BDEGA3
File this flight plan on PilotEdge
Remarks:
Altitude:
(Current/Filed)
29,000ft
Speed:
(Current/Filed)
420kts
Departed: 11-Dec-19 10:30 AM
Arrived: 11-Dec-19 12:10 PM
Distance/Time
Traveled:
590nm/1:40
Distance/Time
To Go:
Arrived

Flight Plot

Page will automatically refresh every two minutes.

Flight plan parsing failed; only flown route is shown


Map Options




Map Legend


Flown Route
Filed Route
Departure Airport
Arrival Airport
Navaid (VOR, NDB)
Fix

Horizontal Profiles

Position Reports

Time Latitude Longitude Heading Altitude Ground
Speed
11-Dec-19 09:43 47.446250 -122.303083 252 442ft 0kts
11-Dec-19 09:44 47.446250 -122.303083 252 442ft 0kts
11-Dec-19 09:45 47.446250 -122.303083 252 442ft 0kts
11-Dec-19 09:46 47.446250 -122.303083 252 442ft 0kts
11-Dec-19 09:47 47.446250 -122.303083 252 442ft 0kts
11-Dec-19 09:48 47.446250 -122.303083 252 442ft 0kts
11-Dec-19 09:49 47.446250 -122.303083 252 442ft 0kts
11-Dec-19 09:50 47.446250 -122.303083 252 442ft 0kts
11-Dec-19 09:51 47.446250 -122.303083 252 442ft 0kts
11-Dec-19 09:52 47.446250 -122.303083 252 442ft 0kts
11-Dec-19 09:53 47.446250 -122.303083 252 442ft 0kts
11-Dec-19 09:54 47.446250 -122.303083 252 442ft 0kts
11-Dec-19 09:55 47.446250 -122.303083 252 442ft 0kts
11-Dec-19 09:56 47.446250 -122.303083 252 442ft 0kts
11-Dec-19 09:57 47.446250 -122.303083 252 442ft 0kts
11-Dec-19 09:58 47.446250 -122.303083 252 442ft 0kts
11-Dec-19 09:59 47.446250 -122.303083 252 442ft 0kts
11-Dec-19 10:00 47.446250 -122.303083 252 442ft 0kts
11-Dec-19 10:01 47.446250 -122.303083 252 442ft 0kts
11-Dec-19 10:02 47.446250 -122.303083 252 442ft 0kts
11-Dec-19 10:03 47.446250 -122.303083 252 442ft 0kts
11-Dec-19 10:04 47.446250 -122.303083 252 442ft 0kts
11-Dec-19 10:05 47.446250 -122.303083 252 442ft 0kts
11-Dec-19 10:06 47.446250 -122.303083 252 442ft 0kts
11-Dec-19 10:07 47.446250 -122.303083 252 442ft 0kts
11-Dec-19 10:08 47.446250 -122.303083 252 442ft 0kts
11-Dec-19 10:09 47.446250 -122.303083 252 442ft 0kts
11-Dec-19 10:10 47.446250 -122.303083 252 442ft 0kts
11-Dec-19 10:11 47.446250 -122.303082 252 442ft 0kts
11-Dec-19 10:12 47.446250 -122.303082 252 442ft 0kts
11-Dec-19 10:13 47.446348 -122.302372 291 442ft 2kts
11-Dec-19 10:14 47.445925 -122.302128 23 442ft 1kts
11-Dec-19 10:15 47.445912 -122.302136 23 442ft 0kts
11-Dec-19 10:16 47.445912 -122.302136 23 442ft 0kts
11-Dec-19 10:17 47.445912 -122.302136 23 442ft 0kts
11-Dec-19 10:18 47.445912 -122.302136 23 442ft 0kts
11-Dec-19 10:19 47.445912 -122.302136 23 442ft 0kts
11-Dec-19 10:20 47.446107 -122.302035 16 442ft 7kts
11-Dec-19 10:21 47.447681 -122.304309 291 442ft 12kts
11-Dec-19 10:22 47.449824 -122.306261 0 442ft 16kts
11-Dec-19 10:23 47.455504 -122.306176 359 442ft 17kts
11-Dec-19 10:24 47.460417 -122.306116 0 442ft 18kts
11-Dec-19 10:25 47.463668 -122.306313 314 442ft 0kts
11-Dec-19 10:26 47.463668 -122.306313 314 442ft 0kts
11-Dec-19 10:27 47.463668 -122.306313 314 442ft 0kts
11-Dec-19 10:28 47.463467 -122.307733 201 442ft 5kts
11-Dec-19 10:29 47.447756 -122.307933 180 460ft 176kts
11-Dec-19 10:30 47.391848 -122.308773 180 3943ft 234kts
11-Dec-19 10:31 47.326832 -122.324591 222 7779ft 257kts
11-Dec-19 10:32 47.308033 -122.428175 262 10678ft 287kts
11-Dec-19 10:33 47.310143 -122.561346 269 12202ft 354kts
11-Dec-19 10:34 47.314128 -122.704216 269 14808ft 366kts
11-Dec-19 10:35 47.294873 -122.849427 247 16785ft 374kts
11-Dec-19 10:36 47.255231 -122.996074 244 18653ft 396kts
11-Dec-19 10:37 47.175891 -123.115397 218 20321ft 417kts
11-Dec-19 10:38 47.077258 -123.208667 201 22091ft 433kts
11-Dec-19 10:39 46.955802 -123.215363 184 24337ft 435kts
11-Dec-19 10:40 46.840932 -123.211663 184 25455ft 448kts
11-Dec-19 10:41 46.716768 -123.207518 184 26631ft 457kts
11-Dec-19 10:42 46.589129 -123.203224 185 28270ft 453kts
11-Dec-19 10:43 46.463536 -123.199099 185 29045ft 449kts
11-Dec-19 10:44 46.337446 -123.194987 185 29049ft 449kts
11-Dec-19 10:45 46.210739 -123.190872 185 29049ft 450kts
11-Dec-19 10:46 46.084635 -123.186785 185 29041ft 450kts
11-Dec-19 10:47 45.957678 -123.182629 185 29031ft 454kts
11-Dec-19 10:48 45.834940 -123.178666 185 29029ft 454kts
11-Dec-19 10:49 45.709623 -123.174623 185 29029ft 455kts
11-Dec-19 10:50 45.587599 -123.170743 186 29023ft 456kts
11-Dec-19 10:51 45.460091 -123.166694 186 29045ft 457kts
11-Dec-19 10:52 45.332355 -123.162669 186 29078ft 458kts
11-Dec-19 10:53 45.203845 -123.158622 186 29083ft 461kts
11-Dec-19 10:54 45.074915 -123.154580 186 29085ft 463kts
11-Dec-19 10:55 44.944629 -123.150485 186 29104ft 464kts
11-Dec-19 10:56 44.817491 -123.146458 186 29115ft 465kts
11-Dec-19 10:57 44.688823 -123.142402 186 29120ft 467kts
11-Dec-19 10:58 44.558314 -123.138297 187 29120ft 467kts
11-Dec-19 10:59 44.427446 -123.134106 186 29120ft 469kts
11-Dec-19 11:00 44.296824 -123.129495 186 29120ft 470kts
11-Dec-19 11:01 44.164982 -123.124832 186 29121ft 471kts
11-Dec-19 11:02 44.032884 -123.120163 187 29121ft 472kts
11-Dec-19 11:04 43.899721 -123.115472 187 29120ft 479kts
11-Dec-19 11:05 43.768592 -123.110796 187 29122ft 479kts
11-Dec-19 11:06 43.634731 -123.106112 187 29140ft 479kts
11-Dec-19 11:07 43.500421 -123.101448 187 29147ft 479kts
11-Dec-19 11:08 43.366749 -123.096823 187 29147ft 479kts
11-Dec-19 11:09 43.230885 -123.092149 187 29146ft 481kts
11-Dec-19 11:10 43.095042 -123.087479 188 29150ft 481kts
11-Dec-19 11:11 42.959963 -123.082795 188 29157ft 468kts
11-Dec-19 11:12 42.835045 -123.078448 188 29164ft 460kts
11-Dec-19 11:13 42.705740 -123.074056 188 29167ft 461kts
11-Dec-19 11:14 42.576422 -123.069618 189 29176ft 462kts
11-Dec-19 11:15 42.445889 -123.065269 189 29189ft 463kts
11-Dec-19 11:16 42.314290 -123.061203 189 29191ft 464kts
11-Dec-19 11:17 42.182447 -123.056978 189 29191ft 465kts
11-Dec-19 11:18 42.052504 -123.052817 189 29191ft 465kts
11-Dec-19 11:19 41.921465 -123.048672 189 29193ft 473kts
11-Dec-19 11:20 41.792492 -123.044442 189 29197ft 473kts
11-Dec-19 11:21 41.659377 -123.040168 189 29198ft 472kts
11-Dec-19 11:21 41.548128 -123.036623 189 29199ft 472kts
11-Dec-19 11:23 41.391451 -123.031585 189 29199ft 474kts
11-Dec-19 11:24 41.257375 -123.027596 189 29216ft 474kts
11-Dec-19 11:24 41.145616 -123.024344 189 29227ft 474kts
11-Dec-19 11:26 40.990324 -123.019725 189 29230ft 476kts
11-Dec-19 11:26 40.885835 -123.016586 189 29221ft 476kts
11-Dec-19 11:27 40.752968 -123.012526 189 29230ft 478kts
11-Dec-19 11:29 40.595831 -123.007836 189 29252ft 478kts
11-Dec-19 11:29 40.483675 -123.004518 189 29262ft 478kts
11-Dec-19 11:30 40.349203 -123.000576 189 29264ft 480kts
11-Dec-19 11:31 40.214987 -122.996624 189 29268ft 480kts
11-Dec-19 11:32 40.079161 -122.992649 189 29277ft 479kts
11-Dec-19 11:33 39.944475 -122.988768 189 29279ft 482kts
11-Dec-19 11:34 39.809363 -122.984739 189 29280ft 483kts
11-Dec-19 11:35 39.674404 -122.980778 188 29279ft 484kts
11-Dec-19 11:36 39.540771 -122.976910 188 29280ft 484kts
11-Dec-19 11:37 39.406247 -122.973000 188 29285ft 484kts
11-Dec-19 11:38 39.271341 -122.969087 188 29286ft 484kts
11-Dec-19 11:39 39.135633 -122.965097 188 29286ft 485kts
11-Dec-19 11:40 38.999544 -122.962030 189 29286ft 484kts
11-Dec-19 11:41 38.878231 -122.956669 183 28391ft 457kts
11-Dec-19 11:42 38.758467 -122.925477 174 27091ft 441kts
11-Dec-19 11:43 38.641097 -122.890625 173 25261ft 445kts
11-Dec-19 11:44 38.524603 -122.856154 173 23909ft 433kts
11-Dec-19 11:45 38.410166 -122.822576 172 22169ft 416kts
11-Dec-19 11:46 38.299296 -122.789970 172 20472ft 399kts
11-Dec-19 11:47 38.192301 -122.758766 172 18717ft 388kts
11-Dec-19 11:48 38.087784 -122.728427 172 16721ft 370kts
11-Dec-19 11:49 37.988584 -122.699608 172 15096ft 361kts
11-Dec-19 11:50 37.894422 -122.666671 155 13534ft 362kts
11-Dec-19 11:51 37.820783 -122.590911 143 12073ft 322kts
11-Dec-19 11:52 37.753134 -122.519224 143 11006ft 311kts
11-Dec-19 11:53 37.689006 -122.451146 143 10994ft 310kts
11-Dec-19 11:54 37.625817 -122.384339 142 9443ft 297kts
11-Dec-19 11:55 37.566989 -122.324515 143 8439ft 273kts
11-Dec-19 11:56 37.509203 -122.265577 143 7680ft 276kts
11-Dec-19 11:57 37.449667 -122.205146 143 5929ft 284kts
11-Dec-19 11:58 37.391765 -122.146742 143 4989ft 231kts
11-Dec-19 11:59 37.374265 -122.088744 43 4984ft 200kts
11-Dec-19 12:00 37.426669 -122.076284 3 5000ft 200kts
11-Dec-19 12:01 37.480531 -122.070981 3 5011ft 200kts
11-Dec-19 12:02 37.534068 -122.065763 3 5000ft 200kts
11-Dec-19 12:03 37.557224 -122.106506 227 4062ft 187kts
11-Dec-19 12:04 37.536442 -122.159846 264 3004ft 175kts
11-Dec-19 12:05 37.553235 -122.217997 295 2506ft 178kts
11-Dec-19 12:06 37.574673 -122.269840 296 1616ft 164kts
11-Dec-19 12:07 37.593584 -122.315320 300 816ft 136kts
11-Dec-19 12:08 37.611174 -122.357119 299 98ft 135kts
11-Dec-19 12:09 37.618714 -122.375052 294 22ft 24kts
11-Dec-19 12:10 37.619345 -122.379743 212 22ft 4kts
11-Dec-19 12:11 37.619057 -122.382806 246 22ft 6kts
11-Dec-19 12:12 37.619211 -122.383579 290 22ft 0kts
11-Dec-19 12:13 37.619211 -122.383579 290 22ft 0kts
11-Dec-19 12:14 37.619211 -122.383579 290 22ft 0kts
11-Dec-19 12:15 37.619211 -122.383579 290 22ft 0kts
11-Dec-19 12:16 37.619211 -122.383579 290 22ft 0kts
11-Dec-19 12:17 37.619211 -122.383579 290 22ft 0kts

Navigation Log

Ident Type
Flight plan parsing failed, navigation log unavailable